Time;durP1;ratioP1;P1;durP2;ratioP2;P2;SDS_P1;SDS_P2;PMS_P1;PMS_P2;Temp;Humidity;BMP_temperature;BMP_pressure;BME280_temperature;BME280_humidity;BME280_pressure;Samples;Min_cycle;Max_cycle;Signal;HPM_P1;HPM_P2
2023/02/09 00:02:13;;;;;;;24.13;12.47;;;;;;;-4.70;100.00;99742.50;5013900;28;20213;-80
2023/02/09 00:04:40;;;;;;;23.60;13.73;;;;;;;-4.68;100.00;99743.38;5014025;28;20239;-78
2023/02/09 00:07:06;;;;;;;21.23;11.97;;;;;;;-4.71;100.00;99740.78;5013915;28;20239;-80
2023/02/09 00:09:33;;;;;;;24.90;13.30;;;;;;;-4.68;100.00;99740.81;5013710;28;20217;-78
2023/02/09 00:14:45;;;;;;;19.67;11.77;;;;;;;-4.79;100.00;99737.19;5013857;28;20280;-79
2023/02/09 00:17:11;;;;;;;23.03;12.87;;;;;;;-4.84;100.00;99734.53;5013749;28;20229;-79
2023/02/09 00:19:38;;;;;;;21.50;12.47;;;;;;;-4.79;100.00;99734.59;5013681;28;20212;-79
2023/02/09 00:22:04;;;;;;;23.30;10.80;;;;;;;-4.84;100.00;99731.97;5013851;28;20214;-79
2023/02/09 00:24:31;;;;;;;22.97;12.87;;;;;;;-4.87;100.00;99733.63;5013821;28;20230;-79
2023/02/09 00:26:57;;;;;;;22.73;11.87;;;;;;;-4.90;100.00;99733.59;5013659;28;20235;-78
2023/02/09 00:29:24;;;;;;;22.67;11.47;;;;;;;-4.96;100.00;99728.31;5014127;28;20218;-78
2023/02/09 00:31:52;;;;;;;21.20;11.73;;;;;;;-4.94;100.00;99719.75;5022243;28;20206;-79
2023/02/09 00:34:18;;;;;;;23.33;11.77;;;;;;;-5.01;100.00;99727.38;5024478;28;20215;-80
2023/02/09 00:36:45;;;;;;;21.97;10.63;;;;;;;-5.08;100.00;99722.97;5023928;28;20254;-78
2023/02/09 00:39:12;;;;;;;22.30;12.20;;;;;;;-5.07;100.00;99725.53;5024190;28;20213;-80
2023/02/09 00:44:22;;;;;;;21.20;11.90;;;;;;;-5.08;100.00;99722.97;5014667;28;20235;-79
2023/02/09 00:46:51;;;;;;;21.73;12.47;;;;;;;-5.04;100.00;99715.28;5014474;28;20252;-79
2023/02/09 00:49:19;;;;;;;22.10;12.40;;;;;;;-5.01;100.00;99714.47;5013845;28;20262;-79
2023/02/09 00:51:46;;;;;;;24.43;13.23;;;;;;;-5.04;100.00;99724.72;5014010;28;20211;-78
2023/02/09 00:54:13;;;;;;;21.77;11.87;;;;;;;-5.07;100.00;99707.50;5013926;28;20206;-80
2023/02/09 00:56:39;;;;;;;20.77;12.13;;;;;;;-5.07;100.00;99709.22;5013513;28;20237;-80
2023/02/09 00:59:06;;;;;;;21.23;11.73;;;;;;;-5.13;100.00;99712.53;5013594;28;20218;-80
2023/02/09 01:01:32;;;;;;;22.53;12.30;;;;;;;-5.16;100.00;99714.19;5013834;28;20586;-80
2023/02/09 01:03:58;;;;;;;22.53;12.47;;;;;;;-5.11;100.00;99705.72;5013365;28;20236;-78
2023/02/09 01:06:26;;;;;;;21.50;12.60;;;;;;;-5.12;100.00;99708.28;5012915;28;20239;-78
2023/02/09 01:08:54;;;;;;;25.47;12.47;;;;;;;-5.08;100.00;99704.91;5012733;28;20206;-78
2023/02/09 01:11:21;;;;;;;20.30;12.00;;;;;;;-5.16;100.00;99706.47;5013012;28;20219;-78
2023/02/09 01:13:48;;;;;;;22.67;12.50;;;;;;;-5.19;100.00;99709.88;5013064;28;20269;-78
2023/02/09 01:16:17;;;;;;;23.70;13.00;;;;;;;-5.15;100.00;99705.63;5013030;28;20237;-78
2023/02/09 01:18:44;;;;;;;24.20;13.20;;;;;;;-5.19;100.00;99714.16;5013020;28;20213;-78
2023/02/09 01:21:11;;;;;;;24.83;14.13;;;;;;;-5.23;100.00;99709.78;5012856;28;20219;-78
2023/02/09 01:23:39;;;;;;;22.77;13.37;;;;;;;-5.29;100.00;99707.09;5012528;28;20707;-78
2023/02/09 01:26:08;;;;;;;22.37;13.37;;;;;;;-5.26;100.00;99702.03;5012809;28;20210;-78
2023/02/09 01:28:35;;;;;;;27.70;13.53;;;;;;;-5.27;100.00;99705.41;5012725;28;20217;-78
2023/02/09 01:31:02;;;;;;;23.53;13.13;;;;;;;-5.25;100.00;99706.31;5012558;28;20226;-78
2023/02/09 01:33:29;;;;;;;23.77;12.83;;;;;;;-5.25;100.00;99703.75;5012485;28;20219;-78
2023/02/09 01:35:59;;;;;;;23.37;12.80;;;;;;;-5.28;100.00;99693.38;5012591;28;20581;-78
2023/02/09 01:38:26;;;;;;;24.43;13.07;;;;;;;-5.27;100.00;99693.41;5012412;28;20236;-78
2023/02/09 01:40:54;;;;;;;25.27;12.90;;;;;;;-5.27;100.00;99687.38;5012294;28;20221;-78
2023/02/09 01:43:21;;;;;;;25.27;14.07;;;;;;;-5.21;100.00;99685.78;5012344;28;20234;-78
2023/02/09 01:45:49;;;;;;;22.73;13.57;;;;;;;-5.17;100.00;99681.53;5012472;28;20360;-78
2023/02/09 01:48:18;;;;;;;24.13;12.20;;;;;;;-5.19;100.00;99684.09;5011959;28;20292;-79
2023/02/09 01:50:49;;;;;;;24.73;14.10;;;;;;;-5.19;100.00;99678.09;5011958;28;20214;-79
2023/02/09 01:53:19;;;;;;;26.30;13.97;;;;;;;-5.22;100.00;99678.91;5012359;28;20580;-79
2023/02/09 01:55:51;;;;;;;25.60;13.60;;;;;;;-5.20;100.00;99677.22;5012241;28;20554;-78
2023/02/09 01:58:20;;;;;;;25.70;13.73;;;;;;;-5.24;100.00;99682.28;5012011;28;20240;-79
2023/02/09 02:00:48;;;;;;;23.03;13.67;;;;;;;-5.25;100.00;99680.56;5011583;28;20230;-78
2023/02/09 02:03:18;;;;;;;26.17;14.20;;;;;;;-5.26;100.00;99676.25;5011826;28;20316;-78
2023/02/09 02:05:48;;;;;;;28.37;15.33;;;;;;;-5.23;100.00;99671.13;5011780;28;20241;-78
2023/02/09 02:08:21;;;;;;;25.80;13.30;;;;;;;-5.20;100.00;99673.78;5011684;28;20233;-79
2023/02/09 02:10:48;;;;;;;25.20;13.27;;;;;;;-5.19;100.00;99672.94;5011705;28;20218;-78
2023/02/09 02:13:14;;;;;;;24.23;13.77;;;;;;;-5.20;100.00;99668.63;5011792;28;20214;-78
2023/02/09 02:15:58;;;;;;;27.10;14.43;;;;;;;-5.29;100.00;99665.88;5011640;28;20205;-78
2023/02/09 02:18:37;;;;;;;24.23;12.87;;;;;;;-5.44;100.00;99665.63;5011873;28;20216;-78
2023/02/09 02:21:42;;;;;;;25.97;13.93;;;;;;;-5.51;100.00;99668.94;5011528;28;20210;-78
2023/02/09 02:24:36;;;;;;;29.30;14.53;;;;;;;-5.52;100.00;99678.34;5011503;28;20225;-78
2023/02/09 02:27:05;;;;;;;24.67;13.23;;;;;;;-5.51;100.00;99671.50;5011772;28;20229;-78
2023/02/09 02:30:12;;;;;;;27.03;13.90;;;;;;;-5.48;100.00;99674.13;5011283;28;20673;-79
2023/02/09 02:32:55;;;;;;;24.50;13.70;;;;;;;-5.41;100.00;99682.00;5011932;28;20607;-78
2023/02/09 02:35:33;;;;;;;26.47;14.40;;;;;;;-5.36;100.00;99674.34;5011506;28;20206;-79
2023/02/09 02:38:07;;;;;;;23.07;13.90;;;;;;;-5.32;100.00;99686.44;5011471;28;20229;-79
2023/02/09 02:40:48;;;;;;;22.50;13.27;;;;;;;-5.31;100.00;99677.88;5011066;28;20204;-79
2023/02/09 02:43:23;;;;;;;26.23;14.37;;;;;;;-5.32;100.00;99683.88;5011320;28;20210;-78
2023/02/09 02:46:04;;;;;;;28.03;13.97;;;;;;;-5.34;100.00;99678.69;5011412;28;20235;-78
2023/02/09 02:48:39;;;;;;;24.60;13.63;;;;;;;-5.31;100.00;99683.03;5011383;28;20213;-78
2023/02/09 02:51:11;;;;;;;29.60;13.73;;;;;;;-5.29;100.00;99679.63;5011153;28;20675;-79
2023/02/09 02:53:41;;;;;;;26.53;14.43;;;;;;;-5.28;100.00;99678.78;5011597;28;20211;-78
2023/02/09 02:56:15;;;;;;;26.20;14.60;;;;;;;-5.36;100.00;99674.34;5011641;28;20221;-78
2023/02/09 02:58:45;;;;;;;22.80;13.47;;;;;;;-5.38;100.00;99681.19;5011318;28;20216;-78
2023/02/09 03:01:16;;;;;;;27.87;14.00;;;;;;;-5.37;100.00;99668.31;5012806;28;20230;-78
2023/02/09 03:03:46;;;;;;;25.87;13.00;;;;;;;-5.45;100.00;99664.75;5014962;28;20235;-78
2023/02/09 03:06:13;;;;;;;24.50;12.93;;;;;;;-5.46;100.00;99664.72;5014666;28;20207;-78
2023/02/09 03:08:52;;;;;;;24.07;12.03;;;;;;;-5.52;100.00;99672.31;5014867;28;20657;-79
2023/02/09 03:11:21;;;;;;;24.00;12.47;;;;;;;-5.57;100.00;99676.56;5014762;28;20749;-78
2023/02/09 03:13:59;;;;;;;26.90;13.37;;;;;;;-5.57;100.00;99673.97;5015016;28;20213;-78
2023/02/09 03:16:31;;;;;;;24.27;13.13;;;;;;;-5.56;100.00;99678.28;5015246;28;20243;-78
2023/02/09 03:19:08;;;;;;;22.67;13.33;;;;;;;-5.47;100.00;99686.16;5014777;28;20225;-78
2023/02/09 03:21:44;;;;;;;25.20;14.17;;;;;;;-5.48;100.00;99687.00;5014933;28;20297;-78
2023/02/09 03:24:19;;;;;;;26.73;14.63;;;;;;;-5.52;100.00;99682.63;5014874;28;20209;-78
2023/02/09 03:26:50;;;;;;;23.17;13.30;;;;;;;-5.57;100.00;99679.97;5015202;28;20230;-78
2023/02/09 03:29:19;;;;;;;23.67;12.37;;;;;;;-5.68;100.00;99678.06;5014642;28;20215;-78
2023/02/09 03:31:47;;;;;;;24.60;12.63;;;;;;;-5.71;100.00;99680.56;5014772;28;20213;-78
2023/02/09 03:34:16;;;;;;;25.87;12.53;;;;;;;-5.86;100.00;99675.16;5014625;28;20221;-78
2023/02/09 03:36:45;;;;;;;22.37;11.97;;;;;;;-5.99;100.00;99670.59;5014961;28;20277;-78
2023/02/09 03:39:12;;;;;;;26.00;13.33;;;;;;;-6.05;100.00;99662.75;5014062;28;20731;-79
2023/02/09 03:41:38;;;;;;;23.50;12.77;;;;;;;-6.07;100.00;99667.00;5014796;28;20221;-79
2023/02/09 03:46:49;;;;;;;26.70;14.50;;;;;;;-6.01;100.00;99669.69;5014064;28;20240;-78
2023/02/09 03:49:17;;;;;;;25.30;13.10;;;;;;;-5.99;100.00;99665.47;5018458;28;20209;-78
2023/02/09 03:51:43;;;;;;;26.63;13.67;;;;;;;-6.02;100.00;99665.38;5025165;28;20286;-78
2023/02/09 03:54:10;;;;;;;23.33;12.97;;;;;;;-6.01;100.00;99679.97;5025244;28;20217;-79
2023/02/09 03:56:37;;;;;;;24.07;12.67;;;;;;;-6.06;100.00;99663.56;5025079;28;20228;-79
2023/02/09 03:59:04;;;;;;;24.47;13.70;;;;;;;-6.08;100.00;99663.56;5023184;28;20242;-78
2023/02/09 04:01:32;;;;;;;23.87;13.40;;;;;;;-6.12;100.00;99663.47;5015336;28;20331;-78
2023/02/09 04:03:59;;;;;;;21.30;12.57;;;;;;;-6.13;100.00;99665.19;5015336;28;20499;-78
2023/02/09 04:06:26;;;;;;;25.57;13.07;;;;;;;-6.14;100.00;99667.72;5014805;28;20245;-78
2023/02/09 04:08:53;;;;;;;23.83;12.83;;;;;;;-6.08;100.00;99672.97;5014712;28;20209;-78
2023/02/09 04:11:19;;;;;;;25.63;12.47;;;;;;;-6.11;100.00;99672.94;5014588;28;20220;-78
2023/02/09 04:13:46;;;;;;;24.23;12.80;;;;;;;-6.10;100.00;99679.81;5014785;28;20205;-78
2023/02/09 04:16:12;;;;;;;25.33;13.80;;;;;;;-6.06;100.00;99686.72;5014290;28;20213;-78
2023/02/09 04:18:39;;;;;;;23.97;13.47;;;;;;;-6.12;100.00;99686.66;5014358;28;20595;-78
2023/02/09 04:21:05;;;;;;;22.30;12.20;;;;;;;-6.11;100.00;99678.09;5014350;28;20213;-78
2023/02/09 04:23:33;;;;;;;27.80;13.90;;;;;;;-6.20;100.00;99689.03;5013834;28;20225;-78
2023/02/09 04:25:59;;;;;;;24.47;12.87;;;;;;;-6.24;100.00;99683.81;5013433;28;20734;-78
2023/02/09 04:28:26;;;;;;;26.87;13.40;;;;;;;-6.26;100.00;99693.19;5013609;28;20224;-78
2023/02/09 04:30:54;;;;;;;24.10;12.20;;;;;;;-6.30;100.00;99694.81;5013338;28;20224;-78
2023/02/09 04:33:21;;;;;;;25.90;13.33;;;;;;;-6.31;100.00;99692.22;5013360;28;20233;-78
2023/02/09 04:35:47;;;;;;;24.63;13.10;;;;;;;-6.35;100.00;99699.00;5013322;28;20221;-78
2023/02/09 04:38:14;;;;;;;21.37;12.27;;;;;;;-6.34;100.00;99700.72;5013148;28;20740;-78
2023/02/09 04:40:42;;;;;;;20.70;11.80;;;;;;;-6.43;100.00;99702.22;5012992;28;20701;-78
2023/02/09 04:43:09;;;;;;;24.33;13.23;;;;;;;-6.47;100.00;99697.88;5013397;28;20236;-78
2023/02/09 04:45:37;;;;;;;26.07;12.97;;;;;;;-6.52;100.00;99694.31;5013103;28;20229;-78
2023/02/09 04:48:04;;;;;;;23.73;13.27;;;;;;;-6.49;100.00;99694.38;5013380;28;20236;-78
2023/02/09 04:50:31;;;;;;;22.23;12.43;;;;;;;-6.49;100.00;99694.38;5012940;28;20668;-78
2023/02/09 04:52:57;;;;;;;25.37;13.00;;;;;;;-6.38;100.00;99692.91;5013166;28;20276;-78
2023/02/09 04:55:24;;;;;;;25.83;12.30;;;;;;;-6.43;100.00;99700.53;5013124;28;20208;-78
2023/02/09 05:00:36;;;;;;;21.70;11.57;;;;;;;-6.57;100.00;99686.50;5012668;28;20947;-78
2023/02/09 05:03:02;;;;;;;21.60;11.83;;;;;;;-6.59;100.00;99688.16;5012933;28;20221;-78
2023/02/09 05:05:29;;;;;;;21.73;12.13;;;;;;;-6.55;100.00;99681.38;5012651;28;20700;-78
2023/02/09 05:07:55;;;;;;;23.10;11.83;;;;;;;-6.55;100.00;99681.38;5026947;23;20245;-77
2023/02/09 05:10:22;;;;;;;22.93;11.93;;;;;;;-6.56;100.00;99671.94;5011878;28;20217;-75
2023/02/09 05:12:48;;;;;;;21.47;11.63;;;;;;;-6.43;100.00;99673.94;5012581;28;20213;-75
2023/02/09 05:15:16;;;;;;;24.27;12.63;;;;;;;-6.45;100.00;99673.03;5012819;28;20212;-77
2023/02/09 05:17:43;;;;;;;19.23;11.27;;;;;;;-6.49;100.00;99678.94;5012406;28;20738;-76
2023/02/09 05:20:10;;;;;;;23.20;12.70;;;;;;;-6.54;100.00;99676.28;5012268;28;20790;-76
2023/02/09 05:22:37;;;;;;;23.60;12.13;;;;;;;-6.59;100.00;99661.59;5012355;28;20213;-75
2023/02/09 05:25:04;;;;;;;22.00;11.40;;;;;;;-6.60;100.00;99670.16;5011892;28;20256;-77
2023/02/09 05:27:30;;;;;;;20.87;11.17;;;;;;;-6.53;100.00;99662.59;5012258;28;20248;-75
2023/02/09 05:29:57;;;;;;;24.33;11.83;;;;;;;-6.47;100.00;99659.31;5012233;28;20212;-77
2023/02/09 05:32:25;;;;;;;25.87;12.67;;;;;;;-6.41;100.00;99664.56;5012388;28;20221;-77
2023/02/09 05:34:51;;;;;;;23.10;11.97;;;;;;;-6.48;100.00;99660.13;5012275;28;20214;-75
2023/02/09 05:37:18;;;;;;;21.43;10.77;;;;;;;-6.57;100.00;99665.06;5012164;28;20240;-76
2023/02/09 05:39:44;;;;;;;25.23;12.33;;;;;;;-6.64;100.00;99668.34;5011876;28;20218;-76
2023/02/09 05:42:15;;;;;;;22.87;12.03;;;;;;;-6.59;100.00;99661.59;5012001;28;20213;-77
2023/02/09 05:44:42;;;;;;;25.63;12.67;;;;;;;-6.54;100.00;99660.00;5011856;28;20205;-77
2023/02/09 05:47:09;;;;;;;22.97;13.03;;;;;;;-6.48;100.00;99665.28;5011900;28;20233;-77
2023/02/09 05:49:36;;;;;;;25.43;13.53;;;;;;;-6.47;100.00;99661.88;5011749;28;20220;-77
2023/02/09 05:52:03;;;;;;;24.93;13.17;;;;;;;-6.47;100.00;99661.88;5012033;28;20210;-76
2023/02/09 05:54:30;;;;;;;24.47;13.37;;;;;;;-6.44;100.00;99657.66;5011874;28;20213;-76
2023/02/09 05:56:57;;;;;;;28.63;14.13;;;;;;;-6.44;100.00;99665.38;5012042;28;20232;-75
2023/02/09 05:59:23;;;;;;;28.33;14.90;;;;;;;-6.39;100.00;99660.31;5011593;28;20702;-77
2023/02/09 06:01:50;;;;;;;24.17;13.33;;;;;;;-6.38;100.00;99662.03;5011972;28;20596;-77
2023/02/09 06:04:16;;;;;;;25.03;14.10;;;;;;;-6.37;100.00;99664.66;5011895;28;20224;-77
2023/02/09 06:06:44;;;;;;;31.00;15.73;;;;;;;-6.37;100.00;99668.94;5011609;28;20237;-76
2023/02/09 06:09:11;;;;;;;30.57;15.17;;;;;;;-6.38;100.00;99662.03;5011732;28;20712;-76
2023/02/09 06:11:38;;;;;;;25.70;14.23;;;;;;;-6.33;100.00;99670.75;5011972;28;20209;-76
2023/02/09 06:14:04;;;;;;;28.07;15.00;;;;;;;-6.33;100.00;99673.31;5011801;28;20212;-77
2023/02/09 06:16:31;;;;;;;28.60;15.30;;;;;;;-6.34;100.00;99681.88;5011374;28;20212;-77
2023/02/09 06:18:57;;;;;;;25.20;13.87;;;;;;;-6.37;100.00;99674.06;5011396;28;20586;-75
2023/02/09 06:21:24;;;;;;;28.90;15.20;;;;;;;-6.33;100.00;99681.03;5011556;28;20261;-77
2023/02/09 06:23:52;;;;;;;28.10;15.47;;;;;;;-6.26;100.00;99682.88;5011391;28;20703;-77
2023/02/09 06:26:19;;;;;;;32.20;16.03;;;;;;;-6.26;100.00;99683.78;5011366;28;20226;-77
2023/02/09 06:28:46;;;;;;;26.93;15.07;;;;;;;-6.26;100.00;99693.19;5011362;28;20214;-77
2023/02/09 06:31:13;;;;;;;28.20;15.13;;;;;;;-6.25;100.00;99689.75;5011193;28;20214;-77
2023/02/09 06:33:39;;;;;;;37.43;16.30;;;;;;;-6.28;100.00;99695.72;5011497;28;20206;-77
2023/02/09 06:36:07;;;;;;;26.27;14.83;;;;;;;-6.29;100.00;99704.28;5014927;28;20214;-77
2023/02/09 06:38:36;;;;;;;30.13;16.23;;;;;;;-6.29;100.00;99709.41;5015319;28;20720;-77
2023/02/09 06:41:04;;;;;;;26.97;14.97;;;;;;;-6.30;100.00;99711.97;5015343;28;20213;-75
2023/02/09 06:43:30;;;;;;;28.03;15.60;;;;;;;-6.29;100.00;99718.84;5015667;28;20214;-76
2023/02/09 06:45:57;;;;;;;29.30;14.97;;;;;;;-6.31;100.00;99721.38;5015166;28;20225;-76
2023/02/09 06:48:23;;;;;;;29.63;15.13;;;;;;;-6.31;100.00;99729.09;5015699;28;20229;-78
2023/02/09 06:50:50;;;;;;;30.77;15.50;;;;;;;-6.32;100.00;99729.06;5014931;28;20213;-75
2023/02/09 06:53:17;;;;;;;31.37;17.47;;;;;;;-6.28;100.00;99731.72;5015096;28;20212;-77
2023/02/09 06:55:43;;;;;;;30.50;17.00;;;;;;;-6.15;100.00;99732.88;5015333;28;20255;-76
2023/02/09 06:58:11;;;;;;;31.03;16.50;;;;;;;-6.18;100.00;99730.25;5015007;28;20233;-76
2023/02/09 07:00:38;;;;;;;31.97;16.87;;;;;;;-6.19;100.00;99731.06;5014832;28;20232;-75
2023/02/09 07:03:04;;;;;;;34.13;17.17;;;;;;;-6.12;100.00;99727.81;5014835;28;20684;-74
2023/02/09 07:05:31;;;;;;;33.47;17.27;;;;;;;-6.08;100.00;99732.16;5014850;28;20229;-72
2023/02/09 07:07:57;;;;;;;26.60;16.57;;;;;;;-6.00;100.00;99728.03;5014771;28;20237;-75
2023/02/09 07:10:24;;;;;;;33.63;16.53;;;;;;;-5.95;100.00;99741.88;5014777;28;20220;-73
2023/02/09 07:12:50;;;;;;;32.33;16.80;;;;;;;-5.94;100.00;99735.88;5014972;28;20210;-73
2023/02/09 07:15:18;;;;;;;31.27;16.80;;;;;;;-5.84;100.00;99737.81;5014706;28;20209;-73
2023/02/09 07:17:45;;;;;;;31.20;16.13;;;;;;;-5.84;100.00;99748.13;5014588;28;20230;-75
2023/02/09 07:20:12;;;;;;;28.33;16.33;;;;;;;-5.87;100.00;99746.34;5014285;28;20215;-73
2023/02/09 07:22:39;;;;;;;29.33;16.53;;;;;;;-5.79;100.00;99749.06;5014625;28;20216;-74
2023/02/09 07:25:06;;;;;;;30.77;16.67;;;;;;;-5.74;100.00;99747.44;5014543;28;20205;-73
2023/02/09 07:27:33;;;;;;;29.57;16.57;;;;;;;-5.67;100.00;99749.31;5014969;28;20237;-75
2023/02/09 07:29:59;;;;;;;31.60;17.07;;;;;;;-5.64;100.00;99754.50;5014239;28;20224;-77
2023/02/09 07:32:27;;;;;;;32.07;16.33;;;;;;;-5.60;100.00;99752.03;5014440;28;20213;-77
2023/02/09 07:34:53;;;;;;;28.40;16.10;;;;;;;-5.57;100.00;99752.09;5014461;28;20210;-77
2023/02/09 07:37:20;;;;;;;30.17;17.30;;;;;;;-5.47;100.00;99747.97;5014284;28;20233;-77
2023/02/09 07:39:46;;;;;;;29.67;16.17;;;;;;;-5.31;100.00;99753.44;5014171;28;20296;-77
2023/02/09 07:42:13;;;;;;;29.23;16.27;;;;;;;-5.24;100.00;99749.28;5012617;28;20294;-77
2023/02/09 07:44:39;;;;;;;28.37;15.80;;;;;;;-5.08;100.00;99743.59;5012957;28;20717;-77
2023/02/09 07:47:06;;;;;;;29.40;16.77;;;;;;;-5.05;100.00;99743.63;5012226;28;20704;-77
2023/02/09 07:49:35;;;;;;;31.13;17.73;;;;;;;-4.97;100.00;99747.19;5013749;28;20857;-77
2023/02/09 07:52:02;;;;;;;28.27;16.20;;;;;;;-4.97;100.00;99747.19;5013952;28;20219;-77
2023/02/09 07:54:28;;;;;;;30.10;16.60;;;;;;;-4.94;100.00;99748.09;5013670;28;20707;-77
2023/02/09 07:56:55;;;;;;;33.30;17.73;;;;;;;-4.94;100.00;99742.94;5013388;28;20230;-77
2023/02/09 07:59:21;;;;;;;31.50;17.57;;;;;;;-4.95;100.00;99745.53;5009449;28;20239;-77
2023/02/09 08:01:48;;;;;;;31.70;18.30;;;;;;;-4.94;100.00;99744.69;5009779;28;20211;-76
2023/02/09 08:04:14;;;;;;;33.53;17.97;;;;;;;-4.88;100.00;99753.38;5011124;28;20220;-76
2023/02/09 08:06:44;;;;;;;33.07;18.03;;;;;;;-4.79;100.00;99744.91;5012278;28;20241;-77
2023/02/09 08:09:13;;;;;;;34.50;20.30;;;;;;;-4.77;100.00;99749.25;5010994;28;20274;-75
2023/02/09 08:11:43;;;;;;;36.57;20.30;;;;;;;-4.68;100.00;99741.69;5005358;28;20768;-74
2023/02/09 08:14:14;;;;;;;35.03;20.50;;;;;;;-4.60;100.00;99754.69;5009685;28;20230;-76
2023/02/09 08:16:41;;;;;;;38.90;20.30;;;;;;;-4.52;100.00;99761.72;5011670;28;20778;-76
2023/02/09 08:19:12;;;;;;;37.93;20.50;;;;;;;-4.46;100.00;99760.97;5012180;28;20220;-78
2023/02/09 08:21:45;;;;;;;42.57;21.63;;;;;;;-4.30;100.00;99761.22;5011361;28;20305;-77
2023/02/09 08:24:12;;;;;;;34.93;20.93;;;;;;;-4.20;100.00;99757.03;5009929;28;20205;-77
2023/02/09 08:26:40;;;;;;;39.27;21.13;;;;;;;-3.98;100.00;99753.94;5009431;28;20236;-77
2023/02/09 08:29:07;;;;;;;41.67;22.07;;;;;;;-3.95;100.00;99749.66;5010928;28;20211;-77
2023/02/09 08:31:34;;;;;;;36.63;21.83;;;;;;;-3.99;100.00;99753.06;5012326;28;20233;-76
2023/02/09 08:34:00;;;;;;;36.50;21.10;;;;;;;-3.92;100.00;99746.25;5010712;28;20213;-76
2023/02/09 08:36:27;;;;;;;40.93;22.40;;;;;;;-3.79;100.00;99754.16;5009487;28;20345;-77
2023/02/09 08:38:54;;;;;;;41.57;21.83;;;;;;;-3.66;100.00;99750.03;5008942;28;20228;-76
2023/02/09 08:41:21;;;;;;;37.47;20.90;;;;;;;-3.49;100.00;99748.53;5012460;28;20198;-77
2023/02/09 08:43:48;;;;;;;39.43;22.63;;;;;;;-3.28;100.00;99752.22;5013239;28;20213;-77
2023/02/09 08:46:15;;;;;;;42.53;22.63;;;;;;;-3.14;100.00;99748.06;5010453;28;20227;-77
2023/02/09 08:48:43;;;;;;;42.30;22.83;;;;;;;-3.09;100.00;99748.09;5009222;28;20345;-75
2023/02/09 08:51:11;;;;;;;41.83;21.97;;;;;;;-3.09;100.00;99748.97;5009943;28;20217;-77
2023/02/09 08:53:38;;;;;;;36.67;21.03;;;;;;;-2.95;100.00;99746.53;5012679;28;20651;-77
2023/02/09 08:56:07;;;;;;;40.10;21.30;;;;;;;-2.92;100.00;99752.59;5013007;28;20213;-77
2023/02/09 08:58:34;;;;;;;39.80;22.17;;;;;;;-2.75;100.00;99745.84;5009055;28;20234;-77
2023/02/09 09:01:00;;;;;;;39.63;21.73;;;;;;;-2.65;100.00;99749.38;5009818;28;20214;-77
2023/02/09 09:03:30;;;;;;;42.33;22.63;;;;;;;-2.58;100.00;99748.59;5010515;28;20214;-76
2023/02/09 09:05:57;;;;;;;43.00;25.88;;;;;;;-2.47;100.00;99744.34;5012054;28;20513;-76
2023/02/09 09:08:23;;;;;;;39.80;22.27;;;;;;;-2.48;100.00;99740.03;5015788;28;20244;-77
2023/02/09 09:10:50;;;;;;;42.93;22.23;;;;;;;-2.42;100.00;99735.78;5027982;28;20205;-76
2023/02/09 09:13:18;;;;;;;35.73;21.83;;;;;;;-2.35;100.00;99736.66;5028894;28;20211;-73
2023/02/09 09:15:45;;;;;;;35.63;21.23;;;;;;;-2.34;100.00;99733.25;5029723;28;20211;-75
2023/02/09 09:18:12;;;;;;;42.03;22.07;;;;;;;-2.40;100.00;99739.22;5032173;28;20236;-78
2023/02/09 09:20:38;;;;;;;35.63;20.93;;;;;;;-2.30;100.00;99743.63;5031099;28;20212;-78
2023/02/09 09:23:05;;;;;;;39.10;21.17;;;;;;;-2.23;100.00;99736.75;5029684;28;20211;-78
2023/02/09 09:25:32;;;;;;;42.37;23.07;;;;;;;-2.14;100.00;99745.44;5029350;28;20572;-78
2023/02/09 09:27:58;;;;;;;39.37;22.80;;;;;;;-1.83;100.00;99751.69;5030448;28;20270;-79
2023/02/09 09:30:27;;;;;;;39.80;22.17;;;;;;;-1.70;100.00;99745.69;5031810;28;20214;-81
2023/02/09 09:32:54;;;;;;;37.43;21.00;;;;;;;-1.77;100.00;99738.75;5032067;28;20205;-87
2023/02/09 09:35:20;;;;;;;41.37;21.53;;;;;;;-1.81;100.00;99747.38;5032360;28;20244;-82
2023/02/09 09:37:47;;;;;;;40.00;22.60;;;;;;;-1.90;99.78;99749.91;5031825;28;20728;-82
2023/02/09 09:40:19;;;;;;;39.83;21.97;;;;;;;-1.93;100.00;99747.28;5031623;28;20300;-76
2023/02/09 09:42:51;;;;;;;37.37;21.07;;;;;;;-1.84;99.68;99752.53;5032013;28;20217;-78
2023/02/09 09:45:21;;;;;;;40.47;22.70;;;;;;;-1.79;100.00;99753.44;5032401;28;20230;-86
2023/02/09 09:47:49;;;;;;;39.60;23.30;;;;;;;-1.64;100.00;99756.09;5032187;28;20235;-87
2023/02/09 09:50:19;;;;;;;41.53;23.03;;;;;;;-1.39;100.00;99751.03;5031691;28;20220;-85
2023/02/09 09:52:49;;;;;;;39.57;22.10;;;;;;;-1.39;100.00;99752.75;5031885;28;20216;-84
2023/02/09 09:55:22;;;;;;;40.80;23.23;;;;;;;-1.24;99.91;99760.59;5031609;28;20213;-86
2023/02/09 09:57:49;;;;;;;36.50;21.80;;;;;;;-1.28;97.75;99756.25;5031483;28;20282;-86
2023/02/09 10:00:19;;;;;;;38.70;21.83;;;;;;;-1.21;96.46;99752.78;5031307;28;20237;-86
2023/02/09 10:02:45;;;;;;;34.13;21.43;;;;;;;-1.19;95.96;99756.25;5031552;28;20564;-86
2023/02/09 10:05:18;;;;;;;39.67;22.80;;;;;;;-1.21;95.73;99768.38;5031489;28;20208;-86
2023/02/09 10:07:51;;;;;;;38.37;22.50;;;;;;;-0.91;96.29;99774.50;5031285;28;20780;-86
2023/02/09 10:10:24;;;;;;;39.47;22.50;;;;;;;-0.76;94.94;99765.84;5030976;28;20694;-86
2023/02/09 10:12:53;;;;;;;42.47;22.80;;;;;;;-0.63;94.80;99765.88;5031424;28;20316;-86
2023/02/09 10:15:27;;;;;;;36.03;22.03;;;;;;;-0.55;93.78;99761.56;5031642;28;20216;-86
2023/02/09 10:17:53;;;;;;;39.57;21.43;;;;;;;-0.70;93.78;99771.06;5030771;28;20238;-86
2023/02/09 10:20:41;;;;;;;40.37;21.13;;;;;;;-0.86;93.76;99764.13;5030865;28;20212;-86
2023/02/09 10:23:15;;;;;;;35.77;21.30;;;;;;;-0.68;92.33;99766.75;5030073;28;20208;-86
2023/02/09 10:25:53;;;;;;;34.90;21.37;;;;;;;-0.43;92.26;99758.09;5028719;28;20204;-86
2023/02/09 10:28:21;;;;;;;37.60;21.27;;;;;;;-0.36;91.25;99757.22;5028426;28;20250;-86
2023/02/09 10:30:50;;;;;;;36.27;22.57;;;;;;;-0.36;89.38;99750.31;5030090;28;20215;-84
2023/02/09 10:33:18;;;;;;;37.80;21.77;;;;;;;-0.26;89.72;99751.19;5031374;28;20568;-81
2023/02/09 10:35:50;;;;;;;37.40;22.33;;;;;;;-0.22;89.65;99746.81;5031449;28;20581;-82
2023/02/09 10:38:20;;;;;;;36.30;22.67;;;;;;;-0.22;88.67;99741.63;5030939;28;20236;-85
2023/02/09 10:40:47;;;;;;;33.90;20.90;;;;;;;-0.11;89.61;99747.69;5031177;28;20304;-86
2023/02/09 10:43:21;;;;;;;37.43;22.17;;;;;;;-0.03;86.90;99740.75;5031465;28;20208;-85
2023/02/09 10:45:53;;;;;;;35.77;20.63;;;;;;;-0.17;86.67;99740.75;5031091;28;20212;-83
2023/02/09 10:48:21;;;;;;;34.27;19.93;;;;;;;-0.25;86.91;99743.38;5031088;28;20248;-88
2023/02/09 10:50:54;;;;;;;31.97;19.87;;;;;;;-0.24;86.13;99733.84;5031014;28;20590;-76
2023/02/09 10:53:23;;;;;;;32.83;20.07;;;;;;;-0.22;86.17;99732.09;5031217;28;20209;-93
2023/02/09 10:55:51;;;;;;;38.43;22.27;;;;;;;-0.05;86.44;99737.28;5031791;28;20208;-87
2023/02/09 10:58:24;;;;;;;37.43;22.70;;;;;;;0.10;84.98;99725.97;5031095;28;20228;-87
2023/02/09 11:00:57;;;;;;;30.97;19.80;;;;;;;0.01;84.75;99729.47;5030606;28;20220;-82
2023/02/09 11:03:25;;;;;;;35.13;20.93;;;;;;;0.06;83.04;99719.06;5031194;28;20569;-82
2023/02/09 11:06:01;;;;;;;35.73;21.40;;;;;;;0.04;81.62;99706.09;5030749;28;20209;-86
2023/02/09 11:08:40;;;;;;;34.17;21.70;;;;;;;0.17;82.85;99715.56;5032058;23;20609;-78
2023/02/09 11:11:13;;;;;;;34.97;20.90;;;;;;;0.17;82.45;99709.50;5010627;28;20205;-77
2023/02/09 11:13:41;;;;;;;36.43;21.33;;;;;;;0.28;84.15;99724.22;5011491;28;20264;-77
2023/02/09 11:16:49;;;;;;;36.87;20.33;;;;;;;0.45;84.01;99719.78;5011537;28;20295;-80
2023/02/09 11:19:33;;;;;;;32.73;19.57;;;;;;;0.45;81.34;99708.53;4991900;28;20223;-80
2023/02/09 11:22:08;;;;;;;35.07;19.77;;;;;;;0.38;80.84;99697.28;4993233;28;20214;-82
2023/02/09 11:24:51;;;;;;;33.90;20.23;;;;;;;0.37;80.25;99699.91;4995442;28;20213;-82
2023/02/09 11:27:35;;;;;;;29.07;18.87;;;;;;;0.51;78.59;99682.50;4995042;28;20238;-81
2023/02/09 11:30:24;;;;;;;33.07;19.40;;;;;;;0.49;78.90;99681.66;4994953;28;20214;-81
2023/02/09 11:32:56;;;;;;;37.27;21.83;;;;;;;0.62;80.91;99694.56;4993371;28;20210;-81